sensor_id;sensor_type;location;lat;lon;timestamp;pressure;altitude;pressure_sealevel;temperature;humidity
46223;BME280;31943;51.410;7.564;2022-08-19T00:01:10;99993.84;;;19.35;61.44
46223;BME280;31943;51.410;7.564;2022-08-19T00:03:36;100002.81;;;19.31;60.95
46223;BME280;31943;51.410;7.564;2022-08-19T00:06:02;100016.09;;;19.28;60.92
46223;BME280;31943;51.410;7.564;2022-08-19T00:08:27;100014.44;;;19.25;60.91
46223;BME280;31943;51.410;7.564;2022-08-19T00:10:53;100023.38;;;19.21;60.81
46223;BME280;31943;51.410;7.564;2022-08-19T00:13:19;100019.09;;;19.17;60.81
46223;BME280;31943;51.410;7.564;2022-08-19T00:15:45;100019.97;;;19.16;61.01
46223;BME280;31943;51.410;7.564;2022-08-19T00:18:12;100022.66;;;19.14;61.09
46223;BME280;31943;51.410;7.564;2022-08-19T00:20:37;100020.06;;;19.13;61.61
46223;BME280;31943;51.410;7.564;2022-08-19T00:23:03;100024.50;;;19.12;61.54
46223;BME280;31943;51.410;7.564;2022-08-19T00:25:29;100025.41;;;19.11;61.70
46223;BME280;31943;51.410;7.564;2022-08-19T00:27:54;100022.78;;;19.11;61.82
46223;BME280;31943;51.410;7.564;2022-08-19T00:30:20;100017.53;;;19.10;62.06
46223;BME280;31943;51.410;7.564;2022-08-19T00:32:46;100013.13;;;19.09;61.97
46223;BME280;31943;51.410;7.564;2022-08-19T00:35:13;100004.34;;;19.08;61.80
46223;BME280;31943;51.410;7.564;2022-08-19T00:37:39;100001.78;;;19.05;61.79
46223;BME280;31943;51.410;7.564;2022-08-19T00:40:06;100004.50;;;19.02;62.07
46223;BME280;31943;51.410;7.564;2022-08-19T00:42:32;100005.50;;;18.98;62.14
46223;BME280;31943;51.410;7.564;2022-08-19T00:44:58;100002.00;;;18.98;61.91
46223;BME280;31943;51.410;7.564;2022-08-19T00:47:23;100003.88;;;18.94;62.15
46223;BME280;31943;51.410;7.564;2022-08-19T00:49:53;100009.19;;;18.92;62.28
46223;BME280;31943;51.410;7.564;2022-08-19T00:52:24;100010.94;;;18.93;62.50
46223;BME280;31943;51.410;7.564;2022-08-19T00:54:50;100007.38;;;18.94;62.17
46223;BME280;31943;51.410;7.564;2022-08-19T00:57:23;99998.66;;;18.91;61.85
46223;BME280;31943;51.410;7.564;2022-08-19T00:59:52;100002.25;;;18.88;61.67
46223;BME280;31943;51.410;7.564;2022-08-19T01:02:19;100005.81;;;18.87;61.55
46223;BME280;31943;51.410;7.564;2022-08-19T01:04:45;100004.13;;;18.85;61.30
46223;BME280;31943;51.410;7.564;2022-08-19T01:07:12;100006.00;;;18.80;61.67
46223;BME280;31943;51.410;7.564;2022-08-19T01:09:39;100013.09;;;18.77;61.76
46223;BME280;31943;51.410;7.564;2022-08-19T01:12:06;100013.16;;;18.76;61.97
46223;BME280;31943;51.410;7.564;2022-08-19T01:14:32;100016.69;;;18.75;62.10
46223;BME280;31943;51.410;7.564;2022-08-19T01:16:58;100012.38;;;18.72;62.29
46223;BME280;31943;51.410;7.564;2022-08-19T01:19:28;100014.16;;;18.72;62.65
46223;BME280;31943;51.410;7.564;2022-08-19T01:21:59;100003.56;;;18.72;62.39
46223;BME280;31943;51.410;7.564;2022-08-19T01:24:28;100009.75;;;18.71;62.56
46223;BME280;31943;51.410;7.564;2022-08-19T01:26:53;100012.44;;;18.69;61.89
46223;BME280;31943;51.410;7.564;2022-08-19T01:29:19;100005.50;;;18.65;62.13
46223;BME280;31943;51.410;7.564;2022-08-19T01:31:45;100010.78;;;18.65;61.92
46223;BME280;31943;51.410;7.564;2022-08-19T01:34:11;100004.66;;;18.65;61.61
46223;BME280;31943;51.410;7.564;2022-08-19T01:36:40;100003.78;;;18.64;61.80
46223;BME280;31943;51.410;7.564;2022-08-19T01:39:08;99996.75;;;18.63;61.90
46223;BME280;31943;51.410;7.564;2022-08-19T01:41:36;99999.38;;;18.63;62.02
46223;BME280;31943;51.410;7.564;2022-08-19T01:44:03;99995.88;;;18.63;62.26
46223;BME280;31943;51.410;7.564;2022-08-19T01:46:29;100003.00;;;18.61;61.97
46223;BME280;31943;51.410;7.564;2022-08-19T01:48:55;99993.34;;;18.58;62.30
46223;BME280;31943;51.410;7.564;2022-08-19T01:51:22;99990.78;;;18.56;62.14
46223;BME280;31943;51.410;7.564;2022-08-19T01:53:48;99995.13;;;18.57;62.49
46223;BME280;31943;51.410;7.564;2022-08-19T01:56:15;99986.34;;;18.57;62.10
46223;BME280;31943;51.410;7.564;2022-08-19T01:58:46;99982.88;;;18.55;61.94
46223;BME280;31943;51.410;7.564;2022-08-19T02:01:14;99980.38;;;18.50;62.08
46223;BME280;31943;51.410;7.564;2022-08-19T02:03:40;99969.00;;;18.47;61.95
46223;BME280;31943;51.410;7.564;2022-08-19T02:06:06;99973.50;;;18.43;61.98
46223;BME280;31943;51.410;7.564;2022-08-19T02:08:35;99974.41;;;18.42;61.71
46223;BME280;31943;51.410;7.564;2022-08-19T02:11:02;99980.66;;;18.40;62.00
46223;BME280;31943;51.410;7.564;2022-08-19T02:13:28;99984.25;;;18.37;62.13
46223;BME280;31943;51.410;7.564;2022-08-19T02:15:56;99980.78;;;18.35;62.30
46223;BME280;31943;51.410;7.564;2022-08-19T02:18:22;99980.88;;;18.30;62.18
46223;BME280;31943;51.410;7.564;2022-08-19T02:20:47;99980.94;;;18.29;62.16
46223;BME280;31943;51.410;7.564;2022-08-19T02:23:14;99984.44;;;18.29;62.08
46223;BME280;31943;51.410;7.564;2022-08-19T02:25:41;99988.91;;;18.27;62.07
46223;BME280;31943;51.410;7.564;2022-08-19T02:28:07;99993.34;;;18.25;62.02
46223;BME280;31943;51.410;7.564;2022-08-19T02:30:33;99992.53;;;18.23;62.19
46223;BME280;31943;51.410;7.564;2022-08-19T02:33:00;99990.81;;;18.21;62.14
46223;BME280;31943;51.410;7.564;2022-08-19T02:35:26;99986.44;;;18.20;62.36
46223;BME280;31943;51.410;7.564;2022-08-19T02:37:51;99984.69;;;18.18;62.56
46223;BME280;31943;51.410;7.564;2022-08-19T02:40:17;99982.97;;;18.17;62.61
46223;BME280;31943;51.410;7.564;2022-08-19T02:42:43;99988.22;;;18.19;62.86
46223;BME280;31943;51.410;7.564;2022-08-19T02:45:09;99989.13;;;18.18;62.71
46223;BME280;31943;51.410;7.564;2022-08-19T02:47:35;99992.63;;;18.18;62.84
46223;BME280;31943;51.410;7.564;2022-08-19T02:50:03;99994.41;;;18.18;62.74
46223;BME280;31943;51.410;7.564;2022-08-19T02:52:30;99987.41;;;18.17;62.62
46223;BME280;31943;51.410;7.564;2022-08-19T02:54:56;99990.97;;;18.14;62.53
46223;BME280;31943;51.410;7.564;2022-08-19T02:57:22;99985.78;;;18.11;62.70
46223;BME280;31943;51.410;7.564;2022-08-19T02:59:47;99985.78;;;18.11;63.15
46223;BME280;31943;51.410;7.564;2022-08-19T03:02:13;99979.69;;;18.09;63.29
46223;BME280;31943;51.410;7.564;2022-08-19T03:04:39;99978.78;;;18.09;63.13
46223;BME280;31943;51.410;7.564;2022-08-19T03:07:06;99983.22;;;18.08;63.21
46223;BME280;31943;51.410;7.564;2022-08-19T03:09:33;99982.38;;;18.06;63.39
46223;BME280;31943;51.410;7.564;2022-08-19T03:11:59;99990.28;;;18.08;63.42
46223;BME280;31943;51.410;7.564;2022-08-19T03:14:24;99978.78;;;18.09;63.65
46223;BME280;31943;51.410;7.564;2022-08-19T03:16:51;99976.97;;;18.11;63.22
46223;BME280;31943;51.410;7.564;2022-08-19T03:19:18;99972.63;;;18.10;63.24
46223;BME280;31943;51.410;7.564;2022-08-19T03:21:45;99977.06;;;18.08;63.30
46223;BME280;31943;51.410;7.564;2022-08-19T03:24:14;99972.72;;;18.05;63.13
46223;BME280;31943;51.410;7.564;2022-08-19T03:26:42;99982.44;;;18.03;62.80
46223;BME280;31943;51.410;7.564;2022-08-19T03:29:08;99987.81;;;18.00;63.09
46223;BME280;31943;51.410;7.564;2022-08-19T03:31:34;99988.81;;;17.96;63.15
46223;BME280;31943;51.410;7.564;2022-08-19T03:33:59;99988.84;;;17.93;63.52
46223;BME280;31943;51.410;7.564;2022-08-19T03:36:26;99985.41;;;17.91;63.59
46223;BME280;31943;51.410;7.564;2022-08-19T03:38:54;99985.34;;;17.94;63.18
46223;BME280;31943;51.410;7.564;2022-08-19T03:41:25;99999.38;;;17.94;63.33
46223;BME280;31943;51.410;7.564;2022-08-19T03:43:52;99995.00;;;17.93;63.14
46223;BME280;31943;51.410;7.564;2022-08-19T03:46:25;99988.84;;;17.93;63.31
46223;BME280;31943;51.410;7.564;2022-08-19T03:48:52;99990.69;;;17.91;63.52
46223;BME280;31943;51.410;7.564;2022-08-19T03:51:21;99992.47;;;17.89;63.55
46223;BME280;31943;51.410;7.564;2022-08-19T03:53:48;99997.75;;;17.89;63.64
46223;BME280;31943;51.410;7.564;2022-08-19T03:56:16;99997.78;;;17.87;63.73
46223;BME280;31943;51.410;7.564;2022-08-19T03:58:44;100004.84;;;17.87;63.45
46223;BME280;31943;51.410;7.564;2022-08-19T04:01:12;100008.44;;;17.83;63.62
46223;BME280;31943;51.410;7.564;2022-08-19T04:03:38;99997.03;;;17.82;63.72
46223;BME280;31943;51.410;7.564;2022-08-19T04:06:10;100003.22;;;17.79;63.74
46223;BME280;31943;51.410;7.564;2022-08-19T04:08:35;100005.03;;;17.77;63.50
46223;BME280;31943;51.410;7.564;2022-08-19T04:11:01;100006.81;;;17.77;63.77
46223;BME280;31943;51.410;7.564;2022-08-19T04:13:26;100001.53;;;17.77;63.64
46223;BME280;31943;51.410;7.564;2022-08-19T04:15:53;100005.03;;;17.77;63.71
46223;BME280;31943;51.410;7.564;2022-08-19T04:18:19;99998.97;;;17.74;63.90
46223;BME280;31943;51.410;7.564;2022-08-19T04:20:46;99996.28;;;17.75;63.75
46223;BME280;31943;51.410;7.564;2022-08-19T04:23:12;99999.84;;;17.74;63.51
46223;BME280;31943;51.410;7.564;2022-08-19T04:25:39;100003.34;;;17.75;63.82
46223;BME280;31943;51.410;7.564;2022-08-19T04:28:05;100006.00;;;17.73;63.86
46223;BME280;31943;51.410;7.564;2022-08-19T04:30:37;100006.00;;;17.73;63.59
46223;BME280;31943;51.410;7.564;2022-08-19T04:33:04;100010.44;;;17.73;63.53
46223;BME280;31943;51.410;7.564;2022-08-19T04:35:35;100016.56;;;17.73;63.57
46223;BME280;31943;51.410;7.564;2022-08-19T04:38:01;100010.44;;;17.73;63.94
46223;BME280;31943;51.410;7.564;2022-08-19T04:40:26;100014.81;;;17.74;64.00
46223;BME280;31943;51.410;7.564;2022-08-19T04:42:52;100019.19;;;17.73;63.94
46223;BME280;31943;51.410;7.564;2022-08-19T04:45:18;100013.91;;;17.73;63.96
46223;BME280;31943;51.410;7.564;2022-08-19T04:47:44;100013.88;;;17.76;63.58
46223;BME280;31943;51.410;7.564;2022-08-19T04:50:12;100012.13;;;17.75;63.88
46223;BME280;31943;51.410;7.564;2022-08-19T04:52:38;100020.09;;;17.74;64.01
46223;BME280;31943;51.410;7.564;2022-08-19T04:55:07;100023.56;;;17.76;64.18
46223;BME280;31943;51.410;7.564;2022-08-19T04:57:33;100023.56;;;17.76;63.89
46223;BME280;31943;51.410;7.564;2022-08-19T04:59:59;100020.88;;;17.77;64.26
46223;BME280;31943;51.410;7.564;2022-08-19T05:02:25;100021.69;;;17.79;64.11
46223;BME280;31943;51.410;7.564;2022-08-19T05:04:51;100019.13;;;17.78;63.96
46223;BME280;31943;51.410;7.564;2022-08-19T05:07:18;100021.69;;;17.79;64.13
46223;BME280;31943;51.410;7.564;2022-08-19T05:09:45;100024.41;;;17.78;64.30
46223;BME280;31943;51.410;7.564;2022-08-19T05:12:10;100020.00;;;17.77;64.42
46223;BME280;31943;51.410;7.564;2022-08-19T05:14:36;100020.81;;;17.81;64.45
46223;BME280;31943;51.410;7.564;2022-08-19T05:17:02;100023.44;;;17.81;64.52
46223;BME280;31943;51.410;7.564;2022-08-19T05:19:27;100029.59;;;17.81;64.78
46223;BME280;31943;51.410;7.564;2022-08-19T05:21:53;100029.56;;;17.83;64.79
46223;BME280;31943;51.410;7.564;2022-08-19T05:24:22;100027.78;;;17.83;64.70
46223;BME280;31943;51.410;7.564;2022-08-19T05:26:51;100041.88;;;17.82;64.94
46223;BME280;31943;51.410;7.564;2022-08-19T05:29:19;100043.63;;;17.85;64.95
46223;BME280;31943;51.410;7.564;2022-08-19T05:31:46;100040.84;;;17.89;65.18
46223;BME280;31943;51.410;7.564;2022-08-19T05:34:12;100042.50;;;17.93;64.94
46223;BME280;31943;51.410;7.564;2022-08-19T05:36:40;100042.44;;;17.98;64.86
46223;BME280;31943;51.410;7.564;2022-08-19T05:39:06;100040.50;;;18.05;64.92
46223;BME280;31943;51.410;7.564;2022-08-19T05:41:34;100036.84;;;18.10;65.40
46223;BME280;31943;51.410;7.564;2022-08-19T05:44:02;100038.50;;;18.14;65.36
46223;BME280;31943;51.410;7.564;2022-08-19T05:46:28;100040.13;;;18.20;65.27
46223;BME280;31943;51.410;7.564;2022-08-19T05:48:54;100039.13;;;18.26;65.34
46223;BME280;31943;51.410;7.564;2022-08-19T05:51:19;100046.97;;;18.29;65.57
46223;BME280;31943;51.410;7.564;2022-08-19T05:53:45;100041.69;;;18.29;65.85
46223;BME280;31943;51.410;7.564;2022-08-19T05:56:13;100034.53;;;18.32;66.03
46223;BME280;31943;51.410;7.564;2022-08-19T05:58:40;100038.94;;;18.33;66.17
46223;BME280;31943;51.410;7.564;2022-08-19T06:01:10;100037.13;;;18.34;66.42
46223;BME280;31943;51.410;7.564;2022-08-19T06:03:36;100036.19;;;18.36;65.85
46223;BME280;31943;51.410;7.564;2022-08-19T06:06:01;100038.69;;;18.43;66.14
46223;BME280;31943;51.410;7.564;2022-08-19T06:08:27;100035.94;;;18.47;65.75
46223;BME280;31943;51.410;7.564;2022-08-19T06:10:53;100033.97;;;18.54;65.96
46223;BME280;31943;51.410;7.564;2022-08-19T06:13:19;100036.53;;;18.58;65.97
46223;BME280;31943;51.410;7.564;2022-08-19T06:15:47;100040.00;;;18.61;66.02
46223;BME280;31943;51.410;7.564;2022-08-19T06:18:13;100041.63;;;18.65;66.14
46223;BME280;31943;51.410;7.564;2022-08-19T06:20:40;100047.72;;;18.68;66.69
46223;BME280;31943;51.410;7.564;2022-08-19T06:23:05;100048.53;;;18.70;66.53
46223;BME280;31943;51.410;7.564;2022-08-19T06:25:31;100046.72;;;18.72;66.09
46223;BME280;31943;51.410;7.564;2022-08-19T06:27:57;100050.09;;;18.77;65.91
46223;BME280;31943;51.410;7.564;2022-08-19T06:30:23;100050.91;;;18.81;66.23
46223;BME280;31943;51.410;7.564;2022-08-19T06:32:50;100046.41;;;18.85;65.81
46223;BME280;31943;51.410;7.564;2022-08-19T06:35:16;100041.09;;;18.86;66.01
46223;BME280;31943;51.410;7.564;2022-08-19T06:37:42;100041.88;;;18.90;66.29
46223;BME280;31943;51.410;7.564;2022-08-19T06:40:08;100040.91;;;18.92;66.64
46223;BME280;31943;51.410;7.564;2022-08-19T06:42:33;100048.72;;;18.97;66.42
46223;BME280;31943;51.410;7.564;2022-08-19T06:44:59;100045.91;;;19.03;66.24
46223;BME280;31943;51.410;7.564;2022-08-19T06:47:25;100052.75;;;19.10;66.05
46223;BME280;31943;51.410;7.564;2022-08-19T06:49:54;100049.91;;;19.18;65.73
46223;BME280;31943;51.410;7.564;2022-08-19T06:52:20;100040.00;;;19.25;65.31
46223;BME280;31943;51.410;7.564;2022-08-19T06:54:46;100045.97;;;19.33;65.22
46223;BME280;31943;51.410;7.564;2022-08-19T06:57:11;100047.41;;;19.43;65.38
46223;BME280;31943;51.410;7.564;2022-08-19T06:59:37;100045.44;;;19.50;64.87
46223;BME280;31943;51.410;7.564;2022-08-19T07:02:04;100048.81;;;19.55;65.16
46223;BME280;31943;51.410;7.564;2022-08-19T07:04:31;100044.28;;;19.60;64.98
46223;BME280;31943;51.410;7.564;2022-08-19T07:07:02;100035.31;;;19.64;64.89
46223;BME280;31943;51.410;7.564;2022-08-19T07:09:28;100047.47;;;19.71;64.03
46223;BME280;31943;51.410;7.564;2022-08-19T07:11:54;100054.22;;;19.82;64.16
46223;BME280;31943;51.410;7.564;2022-08-19T07:14:23;100051.97;;;19.98;64.25
46223;BME280;31943;51.410;7.564;2022-08-19T07:16:50;100050.44;;;20.17;63.86
46223;BME280;31943;51.410;7.564;2022-08-19T07:19:17;100053.50;;;20.31;63.24
46223;BME280;31943;51.410;7.564;2022-08-19T07:21:42;100051.25;;;20.46;63.47
46223;BME280;31943;51.410;7.564;2022-08-19T07:24:10;100061.38;;;20.61;62.97
46223;BME280;31943;51.410;7.564;2022-08-19T07:26:39;100058.91;;;20.82;62.72
46223;BME280;31943;51.410;7.564;2022-08-19T07:29:05;100059.91;;;21.03;62.44
46223;BME280;31943;51.410;7.564;2022-08-19T07:31:32;100060.09;;;21.22;61.86
46223;BME280;31943;51.410;7.564;2022-08-19T07:33:58;100052.47;;;21.36;61.27
46223;BME280;31943;51.410;7.564;2022-08-19T07:36:28;100062.50;;;21.53;60.99
46223;BME280;31943;51.410;7.564;2022-08-19T07:38:54;100064.97;;;21.58;60.93
46223;BME280;31943;51.410;7.564;2022-08-19T07:41:24;100066.47;;;21.65;61.43
46223;BME280;31943;51.410;7.564;2022-08-19T07:43:50;100065.44;;;21.69;61.33
46223;BME280;31943;51.410;7.564;2022-08-19T07:46:16;100069.50;;;21.78;60.85
46223;BME280;31943;51.410;7.564;2022-08-19T07:48:44;100075.56;;;21.81;61.52
46223;BME280;31943;51.410;7.564;2022-08-19T07:51:11;100071.19;;;21.80;61.41
46223;BME280;31943;51.410;7.564;2022-08-19T07:53:37;100080.56;;;21.89;61.28
46223;BME280;31943;51.410;7.564;2022-08-19T07:56:04;100085.44;;;22.01;61.12
46223;BME280;31943;51.410;7.564;2022-08-19T07:58:34;100087.75;;;22.09;61.15
46223;BME280;31943;51.410;7.564;2022-08-19T08:01:03;100090.09;;;22.17;61.01
46223;BME280;31943;51.410;7.564;2022-08-19T08:03:29;100092.59;;;22.21;60.32
46223;BME280;31943;51.410;7.564;2022-08-19T08:05:55;100094.34;;;22.21;60.49
46223;BME280;31943;51.410;7.564;2022-08-19T08:08:20;100096.91;;;22.24;60.35
46223;BME280;31943;51.410;7.564;2022-08-19T08:10:47;100093.97;;;22.31;59.99
46223;BME280;31943;51.410;7.564;2022-08-19T08:13:13;100094.78;;;22.34;60.23
46223;BME280;31943;51.410;7.564;2022-08-19T08:15:40;100086.44;;;22.43;60.88
46223;BME280;31943;51.410;7.564;2022-08-19T08:18:06;100084.16;;;22.54;60.11
46223;BME280;31943;51.410;7.564;2022-08-19T08:20:32;100081.91;;;22.65;59.31
46223;BME280;31943;51.410;7.564;2022-08-19T08:22:58;100091.78;;;22.84;59.17
46223;BME280;31943;51.410;7.564;2022-08-19T08:25:24;100096.44;;;22.99;58.13
46223;BME280;31943;51.410;7.564;2022-08-19T08:27:50;100087.09;;;23.11;58.51
46223;BME280;31943;51.410;7.564;2022-08-19T08:30:18;100092.13;;;23.36;57.88
46223;BME280;31943;51.410;7.564;2022-08-19T08:32:45;100096.91;;;23.67;58.05
46223;BME280;31943;51.410;7.564;2022-08-19T08:35:13;100088.03;;;23.87;55.68
46223;BME280;31943;51.410;7.564;2022-08-19T08:37:39;100088.38;;;23.99;56.05
46223;BME280;31943;51.410;7.564;2022-08-19T08:40:09;100095.44;;;24.19;55.49
46223;BME280;31943;51.410;7.564;2022-08-19T08:42:45;100090.03;;;24.38;54.78
46223;BME280;31943;51.410;7.564;2022-08-19T08:45:16;100093.88;;;24.50;54.41
46223;BME280;31943;51.410;7.564;2022-08-19T08:47:47;100096.28;;;24.56;54.73
46223;BME280;31943;51.410;7.564;2022-08-19T08:50:18;100090.72;;;24.60;54.00
46223;BME280;31943;51.410;7.564;2022-08-19T08:52:47;100092.38;;;24.63;54.05
46223;BME280;31943;51.410;7.564;2022-08-19T08:55:16;100088.34;;;24.72;54.06
46223;BME280;31943;51.410;7.564;2022-08-19T08:57:48;100089.63;;;24.82;53.95
46223;BME280;31943;51.410;7.564;2022-08-19T09:00:18;100093.84;;;25.03;53.62
46223;BME280;31943;51.410;7.564;2022-08-19T09:02:47;100089.41;;;25.20;52.39
46223;BME280;31943;51.410;7.564;2022-08-19T09:05:13;100093.78;;;25.38;51.29
46223;BME280;31943;51.410;7.564;2022-08-19T09:07:44;100084.72;;;25.58;50.11
46223;BME280;31943;51.410;7.564;2022-08-19T09:10:19;100081.06;;;25.75;50.17
46223;BME280;31943;51.410;7.564;2022-08-19T09:12:53;100095.75;;;25.68;50.03
46223;BME280;31943;51.410;7.564;2022-08-19T09:15:28;100086.34;;;25.77;49.91
46223;BME280;31943;51.410;7.564;2022-08-19T09:17:59;100086.06;;;25.65;49.93
46223;BME280;31943;51.410;7.564;2022-08-19T09:20:25;100092.38;;;25.64;49.86
46223;BME280;31943;51.410;7.564;2022-08-19T09:22:51;100090.41;;;25.84;49.72
46223;BME280;31943;51.410;7.564;2022-08-19T09:25:19;100090.44;;;26.00;49.38
46223;BME280;31943;51.410;7.564;2022-08-19T09:27:45;100089.16;;;26.07;48.80
46223;BME280;31943;51.410;7.564;2022-08-19T09:30:13;100087.13;;;26.11;48.34
46223;BME280;31943;51.410;7.564;2022-08-19T09:32:39;100091.63;;;26.10;48.22
46223;BME280;31943;51.410;7.564;2022-08-19T09:35:07;100085.75;;;26.19;47.41
46223;BME280;31943;51.410;7.564;2022-08-19T09:37:33;100087.16;;;26.27;47.54
46223;BME280;31943;51.410;7.564;2022-08-19T09:39:59;100086.75;;;26.49;47.55
46223;BME280;31943;51.410;7.564;2022-08-19T09:42:24;100086.13;;;26.59;46.37
46223;BME280;31943;51.410;7.564;2022-08-19T09:44:50;100075.94;;;26.66;45.56
46223;BME280;31943;51.410;7.564;2022-08-19T09:47:16;100085.19;;;26.60;45.85
46223;BME280;31943;51.410;7.564;2022-08-19T09:49:42;100084.13;;;26.63;46.07
46223;BME280;31943;51.410;7.564;2022-08-19T09:52:10;100081.19;;;26.68;45.86
46223;BME280;31943;51.410;7.564;2022-08-19T09:54:36;100085.63;;;26.83;45.13
46223;BME280;31943;51.410;7.564;2022-08-19T09:57:03;100086.53;;;26.68;45.43
46223;BME280;31943;51.410;7.564;2022-08-19T09:59:29;100081.47;;;26.47;45.14
46223;BME280;31943;51.410;7.564;2022-08-19T10:01:56;100085.66;;;26.37;45.34
46223;BME280;31943;51.410;7.564;2022-08-19T10:04:22;100080.94;;;26.56;45.26
46223;BME280;31943;51.410;7.564;2022-08-19T10:06:49;100082.66;;;26.57;45.51
46223;BME280;31943;51.410;7.564;2022-08-19T10:09:17;100092.00;;;26.50;45.52
46223;BME280;31943;51.410;7.564;2022-08-19T10:11:44;100089.34;;;26.34;45.95
46223;BME280;31943;51.410;7.564;2022-08-19T10:14:10;100093.84;;;26.34;44.63
46223;BME280;31943;51.410;7.564;2022-08-19T10:16:36;100094.28;;;26.26;44.23
46223;BME280;31943;51.410;7.564;2022-08-19T10:19:02;100076.44;;;26.57;43.66
46223;BME280;31943;51.410;7.564;2022-08-19T10:21:30;100078.94;;;26.90;43.46
46223;BME280;31943;51.410;7.564;2022-08-19T10:23:59;100072.34;;;26.81;42.98
46223;BME280;31943;51.410;7.564;2022-08-19T10:26:29;100080.94;;;26.87;43.44
46223;BME280;31943;51.410;7.564;2022-08-19T10:28:56;100077.09;;;26.62;43.77
46223;BME280;31943;51.410;7.564;2022-08-19T10:31:23;100075.81;;;26.68;44.28
46223;BME280;31943;51.410;7.564;2022-08-19T10:33:50;100082.00;;;26.84;43.57
46223;BME280;31943;51.410;7.564;2022-08-19T10:36:18;100074.97;;;27.12;42.65
46223;BME280;31943;51.410;7.564;2022-08-19T10:38:46;100066.84;;;27.42;41.86
46223;BME280;31943;51.410;7.564;2022-08-19T10:41:14;100064.09;;;27.58;42.34
46223;BME280;31943;51.410;7.564;2022-08-19T10:43:43;100067.22;;;27.65;42.37
46223;BME280;31943;51.410;7.564;2022-08-19T10:46:10;100076.72;;;27.41;43.36
46223;BME280;31943;51.410;7.564;2022-08-19T10:48:36;100080.03;;;27.02;43.75
46223;BME280;31943;51.410;7.564;2022-08-19T10:51:02;100071.00;;;26.89;43.56
46223;BME280;31943;51.410;7.564;2022-08-19T10:53:28;100075.66;;;26.71;44.37
46223;BME280;31943;51.410;7.564;2022-08-19T10:55:54;100081.88;;;26.71;44.50
46223;BME280;31943;51.410;7.564;2022-08-19T10:58:21;100075.72;;;26.99;43.88
46223;BME280;31943;51.410;7.564;2022-08-19T11:00:52;100060.41;;;27.16;43.11
46223;BME280;31943;51.410;7.564;2022-08-19T11:03:18;100058.44;;;27.34;43.04
46223;BME280;31943;51.410;7.564;2022-08-19T11:05:44;100065.31;;;27.52;43.19
46223;BME280;31943;51.410;7.564;2022-08-19T11:08:10;100056.28;;;27.68;42.13
46223;BME280;31943;51.410;7.564;2022-08-19T11:10:35;100053.59;;;27.82;41.51
46223;BME280;31943;51.410;7.564;2022-08-19T11:13:01;100059.72;;;27.84;40.86
46223;BME280;31943;51.410;7.564;2022-08-19T11:15:26;100051.38;;;27.89;41.23
46223;BME280;31943;51.410;7.564;2022-08-19T11:17:54;100046.88;;;27.89;40.97
46223;BME280;31943;51.410;7.564;2022-08-19T11:20:19;100052.81;;;27.94;40.48
46223;BME280;31943;51.410;7.564;2022-08-19T11:22:45;100057.97;;;27.97;40.86
46223;BME280;31943;51.410;7.564;2022-08-19T11:25:11;100052.16;;;27.91;40.87
46223;BME280;31943;51.410;7.564;2022-08-19T11:27:38;100048.28;;;27.95;40.68
46223;BME280;31943;51.410;7.564;2022-08-19T11:30:05;100044.31;;;28.15;41.71
46223;BME280;31943;51.410;7.564;2022-08-19T11:32:31;100038.97;;;28.28;39.50
46223;BME280;31943;51.410;7.564;2022-08-19T11:34:58;100040.50;;;28.32;39.61
46223;BME280;31943;51.410;7.564;2022-08-19T11:37:24;100041.25;;;28.34;40.40
46223;BME280;31943;51.410;7.564;2022-08-19T11:39:50;100036.22;;;28.02;40.54
46223;BME280;31943;51.410;7.564;2022-08-19T11:42:17;100037.50;;;27.82;39.66
46223;BME280;31943;51.410;7.564;2022-08-19T11:44:43;100025.59;;;27.86;40.27
46223;BME280;31943;51.410;7.564;2022-08-19T11:47:08;100030.59;;;27.92;39.66
46223;BME280;31943;51.410;7.564;2022-08-19T11:52:59;100025.53;;;27.88;38.77
46223;BME280;31943;51.410;7.564;2022-08-19T11:55:25;100032.97;;;27.97;38.90
46223;BME280;31943;51.410;7.564;2022-08-19T11:57:50;100026.81;;;28.09;38.39
46223;BME280;31943;51.410;7.564;2022-08-19T12:00:16;100029.28;;;28.12;38.52
46223;BME280;31943;51.410;7.564;2022-08-19T12:02:41;100029.97;;;28.29;38.11
46223;BME280;31943;51.410;7.564;2022-08-19T12:05:07;100029.75;;;28.32;38.31
46223;BME280;31943;51.410;7.564;2022-08-19T12:07:34;100037.47;;;28.24;38.68
46223;BME280;31943;51.410;7.564;2022-08-19T12:10:02;100036.81;;;28.20;37.84
46223;BME280;31943;51.410;7.564;2022-08-19T12:12:27;100028.81;;;28.33;37.58
46223;BME280;31943;51.410;7.564;2022-08-19T12:14:53;100027.94;;;28.32;35.59
46223;BME280;31943;51.410;7.564;2022-08-19T12:17:19;100026.84;;;28.22;35.57
46223;BME280;31943;51.410;7.564;2022-08-19T12:19:44;100027.81;;;28.34;36.31
46223;BME280;31943;51.410;7.564;2022-08-19T12:22:10;100033.19;;;28.34;36.99
46223;BME280;31943;51.410;7.564;2022-08-19T12:24:36;100029.56;;;28.48;37.63
46223;BME280;31943;51.410;7.564;2022-08-19T12:27:04;100026.94;;;28.61;36.72
46223;BME280;31943;51.410;7.564;2022-08-19T12:29:29;100039.41;;;28.34;36.95
46223;BME280;31943;51.410;7.564;2022-08-19T12:31:55;100030.22;;;28.38;37.01
46223;BME280;31943;51.410;7.564;2022-08-19T12:34:22;100025.28;;;28.45;37.52
46223;BME280;31943;51.410;7.564;2022-08-19T12:36:48;100029.63;;;28.61;37.50
46223;BME280;31943;51.410;7.564;2022-08-19T12:39:14;100026.84;;;28.62;36.96
46223;BME280;31943;51.410;7.564;2022-08-19T12:41:40;100025.34;;;28.71;37.53
46223;BME280;31943;51.410;7.564;2022-08-19T12:44:08;100025.44;;;28.69;37.53
46223;BME280;31943;51.410;7.564;2022-08-19T12:46:34;100010.75;;;28.75;38.02
46223;BME280;31943;51.410;7.564;2022-08-19T12:49:00;100012.47;;;28.89;37.86
46223;BME280;31943;51.410;7.564;2022-08-19T12:51:26;100009.19;;;28.45;37.95
46223;BME280;31943;51.410;7.564;2022-08-19T12:53:51;100011.06;;;28.17;38.92